createdAt,value
2018-02-16T00:01:10.532Z,101618.58
2018-02-16T00:03:38.296Z,101619.53
2018-02-16T00:06:05.984Z,101624.45
2018-02-16T00:08:33.870Z,101633.93
2018-02-16T00:11:01.570Z,101627.48
2018-02-16T00:13:29.269Z,101627.25
2018-02-16T00:15:56.903Z,101622.52
2018-02-16T00:18:24.623Z,101628.58
2018-02-16T00:20:52.350Z,101634.46
2018-02-16T00:23:20.020Z,101630.54
2018-02-16T00:25:50.803Z,101635.88
2018-02-16T00:28:18.514Z,101638.86
2018-02-16T00:30:46.434Z,101644.08
2018-02-16T00:33:14.118Z,101634.49
2018-02-16T00:35:44.112Z,101644.03
2018-02-16T00:38:11.843Z,101651.13
2018-02-16T00:40:39.511Z,101649.98
2018-02-16T00:43:07.155Z,101650.39
2018-02-16T00:45:34.873Z,101653.75
2018-02-16T00:48:02.746Z,101659.33
2018-02-16T00:50:30.402Z,101655.27
2018-02-16T00:52:58.095Z,101659.84
2018-02-16T00:55:25.820Z,101663.36
2018-02-16T00:57:53.507Z,101665.80
2018-02-16T01:00:21.168Z,101664.81
2018-02-16T01:02:48.927Z,101666.04
2018-02-16T01:05:16.599Z,101669.52
2018-02-16T01:07:44.261Z,101673.70
2018-02-16T01:10:12.395Z,101675.52
2018-02-16T01:12:40.032Z,101678.38
2018-02-16T01:15:07.680Z,101673.42
2018-02-16T01:17:35.331Z,101680.81
2018-02-16T01:20:03.020Z,101681.15
2018-02-16T01:22:30.683Z,101683.70
2018-02-16T01:24:58.395Z,101686.50
2018-02-16T01:27:26.106Z,101681.63
2018-02-16T01:29:53.809Z,101692.20
2018-02-16T01:32:21.483Z,101693.66
2018-02-16T01:34:49.145Z,101697.14
2018-02-16T01:37:16.816Z,101699.75
2018-02-16T01:39:44.530Z,101708.54
2018-02-16T01:42:12.148Z,101711.03
2018-02-16T01:44:40.540Z,101712.30
2018-02-16T01:47:08.224Z,101708.94
2018-02-16T01:52:41.626Z,101706.70
2018-02-16T01:55:09.243Z,101704.80
2018-02-16T01:57:36.869Z,101707.06
2018-02-16T02:00:04.535Z,101713.86
2018-02-16T02:02:32.142Z,101710.53
2018-02-16T02:04:59.793Z,101716.89
2018-02-16T02:07:27.369Z,101715.37
2018-02-16T02:09:55.402Z,101719.32
2018-02-16T02:12:23.020Z,101722.80
2018-02-16T02:14:50.716Z,101728.37
2018-02-16T02:17:18.363Z,101722.66
2018-02-16T02:19:46.186Z,101733.72
2018-02-16T02:22:13.820Z,101735.48
2018-02-16T02:24:41.480Z,101732.39
2018-02-16T02:27:09.065Z,101731.92
2018-02-16T02:29:36.697Z,101733.25
2018-02-16T02:32:04.315Z,101733.91
2018-02-16T02:34:31.939Z,101739.67
2018-02-16T02:36:59.568Z,101740.89
2018-02-16T02:39:27.151Z,101741.28
2018-02-16T02:41:54.816Z,101747.45
2018-02-16T02:44:22.673Z,101733.62
2018-02-16T02:46:50.277Z,101734.52
2018-02-16T02:49:17.892Z,101734.74
2018-02-16T02:51:45.499Z,101732.48
2018-02-16T02:54:13.076Z,101736.98
2018-02-16T02:56:40.776Z,101745.80
2018-02-16T02:59:08.403Z,101740.17
2018-02-16T03:01:36.014Z,101757.27
2018-02-16T03:04:03.637Z,101746.39
2018-02-16T03:06:33.256Z,101753.30
2018-02-16T03:09:00.927Z,101757.00
2018-02-16T03:11:28.505Z,101755.36
2018-02-16T03:13:56.122Z,101758.60
2018-02-16T03:16:23.703Z,101764.07
2018-02-16T03:18:51.305Z,101759.30
2018-02-16T03:21:18.893Z,101768.20
2018-02-16T03:23:46.509Z,101777.44
2018-02-16T03:26:14.096Z,101777.80
2018-02-16T03:28:42.004Z,101781.39
2018-02-16T03:31:09.580Z,101784.71
2018-02-16T03:33:37.177Z,101788.25
2018-02-16T03:36:04.814Z,101790.52
2018-02-16T03:38:32.476Z,101793.17
2018-02-16T03:41:00.114Z,101799.73
2018-02-16T03:43:27.788Z,101807.64
2018-02-16T03:45:55.366Z,101808.56
2018-02-16T03:48:22.971Z,101809.95
2018-02-16T03:50:50.630Z,101807.33
2018-02-16T03:53:18.220Z,101814.86
2018-02-16T03:55:46.101Z,101812.47
2018-02-16T03:58:13.720Z,101813.55
2018-02-16T04:00:41.330Z,101817.41
2018-02-16T04:03:08.950Z,101812.61
2018-02-16T04:05:36.568Z,101816.73
2018-02-16T04:08:04.192Z,101821.55
2018-02-16T04:10:32.079Z,101824.91
2018-02-16T04:12:59.698Z,101832.60
2018-02-16T04:15:27.328Z,101833.64
2018-02-16T04:17:54.965Z,101831.91
2018-02-16T04:20:22.557Z,101834.75
2018-02-16T04:22:50.164Z,101836.81
2018-02-16T04:25:18.011Z,101834.38
2018-02-16T04:27:45.622Z,101843.20
2018-02-16T04:30:13.259Z,101843.34
2018-02-16T04:32:41.096Z,101841.83
2018-02-16T04:35:08.721Z,101845.56
2018-02-16T04:37:36.668Z,101849.61
2018-02-16T04:40:04.265Z,101852.28
2018-02-16T04:42:31.920Z,101854.77
2018-02-16T04:44:59.516Z,101861.52
2018-02-16T04:47:27.163Z,101865.76
2018-02-16T04:49:55.082Z,101870.16
2018-02-16T04:52:22.732Z,101869.23
2018-02-16T04:54:50.311Z,101871.48
2018-02-16T04:57:18.274Z,101873.78
2018-02-16T04:59:45.913Z,101878.20
2018-02-16T05:02:13.509Z,101883.09
2018-02-16T05:04:41.082Z,101889.47
2018-02-16T05:07:08.701Z,101888.94
2018-02-16T05:09:36.339Z,101892.14
2018-02-16T05:12:04.240Z,101890.00
2018-02-16T05:14:31.870Z,101897.44
2018-02-16T05:16:59.466Z,101906.26
2018-02-16T05:19:27.112Z,101904.45
2018-02-16T05:21:54.708Z,101905.27
2018-02-16T05:24:22.305Z,101909.58
2018-02-16T05:26:49.925Z,101909.92
2018-02-16T05:29:17.520Z,101917.98
2018-02-16T05:31:45.142Z,101919.00
2018-02-16T05:34:13.007Z,101931.03
2018-02-16T05:36:40.635Z,101928.94
2018-02-16T05:39:08.223Z,101933.39
2018-02-16T05:41:35.831Z,101936.18
2018-02-16T05:44:03.409Z,101941.27
2018-02-16T05:46:31.102Z,101944.85
2018-02-16T05:48:58.707Z,101948.59
2018-02-16T05:51:26.355Z,101952.78
2018-02-16T05:53:53.965Z,101952.18
2018-02-16T05:56:21.559Z,101951.18
2018-02-16T05:58:49.173Z,101957.55
2018-02-16T06:01:17.615Z,101965.80
2018-02-16T06:03:45.479Z,101968.16
2018-02-16T06:06:13.069Z,101975.64
2018-02-16T06:08:40.996Z,101969.30
2018-02-16T06:11:08.601Z,101976.78
2018-02-16T06:13:36.191Z,101973.42
2018-02-16T06:16:03.811Z,101988.67
2018-02-16T06:18:31.424Z,101999.97
2018-02-16T06:20:59.050Z,101992.30
2018-02-16T06:23:26.966Z,101999.20
2018-02-16T06:25:54.550Z,101997.66
2018-02-16T06:28:22.242Z,101996.75
2018-02-16T06:30:49.844Z,102005.68
2018-02-16T06:33:17.417Z,101997.97
2018-02-16T06:35:45.136Z,102005.34
2018-02-16T06:38:12.816Z,102005.03
2018-02-16T06:40:40.380Z,102010.58
2018-02-16T06:43:08.015Z,102014.78
2018-02-16T06:45:46.071Z,102013.58
2018-02-16T06:48:13.726Z,102019.13
2018-02-16T06:50:41.339Z,102016.53
2018-02-16T06:53:09.255Z,102024.23
2018-02-16T06:55:36.891Z,102030.91
2018-02-16T06:58:04.463Z,102035.26
2018-02-16T07:00:32.060Z,102039.45
2018-02-16T07:02:59.682Z,102027.22
2018-02-16T07:05:27.279Z,102036.95
2018-02-16T07:07:54.973Z,102043.36
2018-02-16T07:10:22.728Z,102045.38
2018-02-16T07:12:50.318Z,102049.39
2018-02-16T07:15:18.321Z,102049.39
2018-02-16T07:17:45.931Z,102050.31
2018-02-16T07:20:13.628Z,102057.30
2018-02-16T07:22:41.622Z,102057.07
2018-02-16T07:25:09.252Z,102062.42
2018-02-16T07:27:36.935Z,102067.65
2018-02-16T07:30:04.567Z,102072.19
2018-02-16T07:32:32.178Z,102068.81
2018-02-16T07:34:59.903Z,102071.77
2018-02-16T07:37:27.500Z,102074.33
2018-02-16T07:39:55.194Z,102075.83
2018-02-16T07:42:22.783Z,102081.69
2018-02-16T07:44:50.482Z,102080.13
2018-02-16T07:47:18.141Z,102090.48
2018-02-16T07:49:45.771Z,102097.02
2018-02-16T07:52:13.386Z,102101.22
2018-02-16T07:54:41.031Z,102108.10
2018-02-16T07:57:09.105Z,102110.66
2018-02-16T07:59:36.782Z,102114.34
2018-02-16T08:02:04.730Z,102112.28
2018-02-16T08:04:32.345Z,102118.02
2018-02-16T08:07:00.000Z,102123.56
2018-02-16T08:09:27.657Z,102125.14
2018-02-16T08:11:55.297Z,102129.33
2018-02-16T08:14:22.895Z,102131.97
2018-02-16T08:16:50.516Z,102138.40
2018-02-16T08:19:18.142Z,102140.24
2018-02-16T08:21:45.743Z,102137.20
2018-02-16T08:24:13.685Z,102146.95
2018-02-16T08:26:41.517Z,102147.73
2018-02-16T08:29:09.204Z,102152.02
2018-02-16T08:31:36.821Z,102149.39
2018-02-16T08:34:04.654Z,102152.04
2018-02-16T08:36:32.314Z,102153.20
2018-02-16T08:38:59.908Z,102152.75
2018-02-16T08:41:27.516Z,102153.44
2018-02-16T08:43:55.216Z,102158.20
2018-02-16T08:46:22.843Z,102171.54
2018-02-16T08:48:50.515Z,102173.91
2018-02-16T08:51:18.096Z,102180.92
2018-02-16T08:53:45.690Z,102189.83
2018-02-16T08:56:13.339Z,102192.33
2018-02-16T08:58:40.937Z,102187.73
2018-02-16T09:01:08.568Z,102187.39
2018-02-16T09:03:36.371Z,102199.17
2018-02-16T09:06:03.941Z,102197.46
2018-02-16T09:08:31.573Z,102203.89
2018-02-16T09:10:59.160Z,102205.57
2018-02-16T09:13:26.768Z,102207.06
2018-02-16T09:15:54.699Z,102214.38
2018-02-16T09:18:22.367Z,102223.78
2018-02-16T09:20:49.997Z,102229.36
2018-02-16T09:23:17.575Z,102227.64
2018-02-16T09:25:45.373Z,102225.41
2018-02-16T09:28:13.323Z,102226.97
2018-02-16T09:30:40.924Z,102233.51
2018-02-16T09:33:08.507Z,102237.55
2018-02-16T09:35:49.824Z,102240.48
2018-02-16T09:38:17.397Z,102241.70
2018-02-16T09:40:44.983Z,102243.34
2018-02-16T09:43:12.643Z,102249.02
2018-02-16T09:45:40.266Z,102257.02
2018-02-16T09:48:07.912Z,102256.63
2018-02-16T09:50:35.764Z,102260.37
2018-02-16T09:53:03.403Z,102258.01
2018-02-16T09:55:31.124Z,102265.70
2018-02-16T09:57:59.329Z,102269.86
2018-02-16T10:00:26.996Z,102269.77
2018-02-16T10:02:54.933Z,102278.37
2018-02-16T10:05:22.610Z,102277.34
2018-02-16T10:07:50.269Z,102285.49
2018-02-16T10:10:17.942Z,102289.53
2018-02-16T10:12:46.008Z,102289.55
2018-02-16T10:15:13.718Z,102291.73
2018-02-16T10:17:41.622Z,102292.20
2018-02-16T10:20:09.336Z,102301.19
2018-02-16T10:22:37.009Z,102308.69
2018-02-16T10:25:05.111Z,102311.39
2018-02-16T10:27:32.843Z,102315.00
2018-02-16T10:30:00.544Z,102307.45
2018-02-16T10:32:28.376Z,102317.15
2018-02-16T10:34:56.622Z,102318.72
2018-02-16T10:37:24.589Z,102317.99
2018-02-16T10:39:52.376Z,102330.91
2018-02-16T10:42:20.158Z,102321.66
2018-02-16T10:44:47.841Z,102325.63
2018-02-16T10:47:15.548Z,102332.02
2018-02-16T10:49:43.303Z,102333.94
2018-02-16T10:52:11.037Z,102334.29
2018-02-16T10:54:38.718Z,102338.02
2018-02-16T10:57:06.424Z,102343.02
2018-02-16T10:59:34.101Z,102336.36
2018-02-16T11:02:07.452Z,102341.13
2018-02-16T11:04:40.615Z,102336.94
2018-02-16T11:07:14.132Z,102343.54
2018-02-16T11:09:41.844Z,102340.58
2018-02-16T11:12:09.643Z,102346.22
2018-02-16T11:14:42.981Z,102335.70
2018-02-16T11:17:10.706Z,102337.45
2018-02-16T11:19:38.456Z,102341.41
2018-02-16T11:22:06.182Z,102348.07
2018-02-16T11:24:33.838Z,102346.31
2018-02-16T11:27:01.583Z,102352.16
2018-02-16T11:29:29.259Z,102354.52
2018-02-16T11:31:57.010Z,102357.09
2018-02-16T11:34:24.965Z,102354.72
2018-02-16T11:36:52.719Z,102355.30
2018-02-16T11:39:20.507Z,102361.16
2018-02-16T11:41:48.240Z,102356.11
2018-02-16T11:44:15.999Z,102357.92
2018-02-16T11:46:43.651Z,102354.39
2018-02-16T11:49:11.361Z,102358.16
2018-02-16T11:51:39.103Z,102368.08
2018-02-16T11:54:07.084Z,102368.16
2018-02-16T11:56:34.761Z,102368.25
2018-02-16T11:59:02.434Z,102374.61
2018-02-16T12:01:30.176Z,102377.39
2018-02-16T12:03:57.925Z,102381.94
2018-02-16T12:06:25.657Z,102390.75
2018-02-16T12:08:53.379Z,102387.89
2018-02-16T12:11:21.156Z,102389.16
2018-02-16T12:13:48.924Z,102395.38
2018-02-16T12:16:16.620Z,102391.71
2018-02-16T12:18:44.415Z,102395.38
2018-02-16T12:21:12.160Z,102393.70
2018-02-16T12:23:39.893Z,102398.09
2018-02-16T12:26:07.566Z,102394.53
2018-02-16T12:28:35.338Z,102399.47
2018-02-16T12:31:03.101Z,102405.45
2018-02-16T12:33:30.772Z,102397.14
2018-02-16T12:35:58.516Z,102399.33
2018-02-16T12:38:26.211Z,102402.95
2018-02-16T12:40:53.916Z,102395.46
2018-02-16T12:43:21.662Z,102401.66
2018-02-16T12:45:49.313Z,102391.93
2018-02-16T12:48:17.073Z,102397.96
2018-02-16T12:50:44.800Z,102398.84
2018-02-16T12:53:13.849Z,102399.77
2018-02-16T12:55:41.705Z,102401.62
2018-02-16T12:58:09.377Z,102397.97
2018-02-16T13:00:41.070Z,102399.90
2018-02-16T13:03:08.905Z,102401.97
2018-02-16T13:05:36.655Z,102408.45
2018-02-16T13:10:43.338Z,102408.31
2018-02-16T13:13:11.076Z,102407.52
2018-02-16T13:15:38.786Z,102411.61
2018-02-16T13:18:06.584Z,102415.78
2018-02-16T13:20:34.874Z,102415.87
2018-02-16T13:23:03.802Z,102414.14
2018-02-16T13:25:33.156Z,102417.05
2018-02-16T13:28:05.696Z,102423.46
2018-02-16T13:30:33.453Z,102418.98
2018-02-16T13:33:02.318Z,102418.31
2018-02-16T13:35:30.079Z,102420.42
2018-02-16T13:37:57.806Z,102424.59
2018-02-16T13:40:25.585Z,102426.11
2018-02-16T13:42:54.445Z,102426.95
2018-02-16T13:45:23.636Z,102432.60
2018-02-16T13:47:51.474Z,102438.16
2018-02-16T13:50:25.009Z,102432.27
2018-02-16T13:52:52.922Z,102437.32
2018-02-16T13:55:22.765Z,102430.02
2018-02-16T13:58:00.358Z,102435.80
2018-02-16T14:00:32.466Z,102435.25
2018-02-16T14:03:02.096Z,102433.11
2018-02-16T14:05:33.725Z,102439.69
2018-02-16T14:08:02.503Z,102441.95
2018-02-16T14:10:30.223Z,102439.34
2018-02-16T14:13:05.959Z,102440.69
2018-02-16T14:15:34.588Z,102437.14
2018-02-16T14:18:06.310Z,102435.42
2018-02-16T14:20:39.140Z,102435.84
2018-02-16T14:23:07.245Z,102438.27
2018-02-16T14:25:36.249Z,102435.91
2018-02-16T14:28:04.063Z,102435.39
2018-02-16T14:30:33.017Z,102436.34
2018-02-16T14:33:00.830Z,102438.30
2018-02-16T14:35:30.404Z,102441.23
2018-02-16T14:38:02.506Z,102441.27
2018-02-16T14:40:30.579Z,102435.09
2018-02-16T14:42:58.651Z,102436.73
2018-02-16T14:45:30.123Z,102434.70
2018-02-16T14:47:58.897Z,102441.39
2018-02-16T14:50:26.646Z,102435.83
2018-02-16T14:52:55.593Z,102435.79
2018-02-16T14:55:23.335Z,102437.52
2018-02-16T14:57:51.129Z,102443.20
2018-02-16T15:00:20.053Z,102439.81
2018-02-16T15:02:47.830Z,102443.28
2018-02-16T15:05:15.580Z,102444.88
2018-02-16T15:07:43.675Z,102443.83
2018-02-16T15:10:11.452Z,102446.66
2018-02-16T15:12:39.622Z,102446.95
2018-02-16T15:15:08.412Z,102443.88
2018-02-16T15:17:38.013Z,102441.23
2018-02-16T15:20:05.712Z,102449.00
2018-02-16T15:22:33.520Z,102450.64
2018-02-16T15:25:01.263Z,102451.70
2018-02-16T15:27:28.974Z,102452.58
2018-02-16T15:29:56.657Z,102445.03
2018-02-16T15:32:24.393Z,102450.63
2018-02-16T15:34:52.113Z,102453.36
2018-02-16T15:37:19.833Z,102456.55
2018-02-16T15:39:47.659Z,102459.86
2018-02-16T15:42:15.305Z,102459.94
2018-02-16T15:44:42.982Z,102457.28
2018-02-16T15:47:10.718Z,102463.55
2018-02-16T15:49:38.325Z,102464.97
2018-02-16T15:52:06.035Z,102460.94
2018-02-16T15:54:33.883Z,102460.22
2018-02-16T15:57:01.508Z,102467.28
2018-02-16T15:59:29.161Z,102474.72
2018-02-16T16:01:56.833Z,102470.95
2018-02-16T16:04:24.510Z,102474.55
2018-02-16T16:06:52.447Z,102468.34
2018-02-16T16:09:20.209Z,102474.05
2018-02-16T16:11:47.910Z,102479.50
2018-02-16T16:14:15.696Z,102471.07
2018-02-16T16:16:43.855Z,102484.73
2018-02-16T16:19:11.505Z,102479.66
2018-02-16T16:21:39.220Z,102485.18
2018-02-16T16:24:06.955Z,102484.92
2018-02-16T16:26:34.670Z,102485.61
2018-02-16T16:29:02.390Z,102483.52
2018-02-16T16:31:30.292Z,102490.44
2018-02-16T16:33:58.052Z,102496.87
2018-02-16T16:36:25.868Z,102496.69
2018-02-16T16:38:53.601Z,102496.52
2018-02-16T16:41:21.257Z,102500.55
2018-02-16T16:43:48.913Z,102508.34
2018-02-16T16:46:16.629Z,102509.86
2018-02-16T16:48:44.571Z,102517.28
2018-02-16T16:51:12.255Z,102514.05
2018-02-16T16:53:39.972Z,102512.30
2018-02-16T16:56:07.761Z,102521.86
2018-02-16T16:58:35.853Z,102522.66
2018-02-16T17:01:03.537Z,102531.13
2018-02-16T17:03:31.306Z,102526.41
2018-02-16T17:05:59.027Z,102533.42
2018-02-16T17:08:26.794Z,102532.23
2018-02-16T17:10:54.568Z,102528.67
2018-02-16T17:13:22.196Z,102537.02
2018-02-16T17:15:49.926Z,102541.20
2018-02-16T17:18:17.692Z,102537.49
2018-02-16T17:20:45.432Z,102536.84
2018-02-16T17:23:13.061Z,102532.98
2018-02-16T17:28:41.043Z,102530.50
2018-02-16T17:31:08.820Z,102523.75
2018-02-16T17:33:36.553Z,102525.18
2018-02-16T17:36:04.546Z,102526.14
2018-02-16T17:38:32.131Z,102520.44
2018-02-16T17:40:59.807Z,102523.39
2018-02-16T17:43:27.432Z,102520.63
2018-02-16T17:45:55.138Z,102519.94
2018-02-16T17:48:23.075Z,102525.73
2018-02-16T17:50:50.658Z,102515.58
2018-02-16T17:53:18.305Z,102517.19
2018-02-16T17:55:45.950Z,102515.16
2018-02-16T17:58:13.695Z,102516.34
2018-02-16T18:00:41.473Z,102516.84
2018-02-16T18:03:09.112Z,102518.36
2018-02-16T18:05:36.796Z,102524.91
2018-02-16T18:08:04.529Z,102524.53
2018-02-16T18:10:32.221Z,102524.41
2018-02-16T18:12:59.953Z,102527.95
2018-02-16T18:15:29.666Z,102535.03
2018-02-16T18:17:57.347Z,102537.75
2018-02-16T18:20:25.235Z,102536.94
2018-02-16T18:22:53.003Z,102531.83
2018-02-16T18:25:20.698Z,102529.94
2018-02-16T18:27:48.428Z,102539.04
2018-02-16T18:30:16.166Z,102540.02
2018-02-16T18:32:46.537Z,102538.42
2018-02-16T18:35:14.193Z,102545.17
2018-02-16T18:37:41.915Z,102542.97
2018-02-16T18:40:09.938Z,102543.81
2018-02-16T18:42:37.647Z,102546.41
2018-02-16T18:45:05.318Z,102551.52
2018-02-16T18:47:33.063Z,102547.59
2018-02-16T18:50:00.805Z,102550.02
2018-02-16T18:52:28.494Z,102544.48
2018-02-16T18:54:56.095Z,102551.31
2018-02-16T18:57:23.735Z,102562.97
2018-02-16T18:59:52.495Z,102556.82
2018-02-16T19:02:20.418Z,102559.59
2018-02-16T19:04:48.019Z,102575.51
2018-02-16T19:07:15.636Z,102573.45
2018-02-16T19:09:43.268Z,102567.41
2018-02-16T19:12:10.851Z,102567.02
2018-02-16T19:14:38.485Z,102568.97
2018-02-16T19:17:06.057Z,102567.58
2018-02-16T19:19:33.666Z,102566.54
2018-02-16T19:22:01.324Z,102564.30
2018-02-16T19:24:28.985Z,102563.50
2018-02-16T19:26:56.564Z,102561.13
2018-02-16T19:29:24.173Z,102554.86
2018-02-16T19:31:51.788Z,102554.06
2018-02-16T19:34:19.505Z,102548.20
2018-02-16T19:36:47.074Z,102544.62
2018-02-16T19:39:14.697Z,102544.73
2018-02-16T19:41:42.607Z,102542.46
2018-02-16T19:44:10.292Z,102544.55
2018-02-16T19:46:37.937Z,102545.37
2018-02-16T19:49:05.553Z,102550.62
2018-02-16T19:51:33.233Z,102549.61
2018-02-16T19:54:00.935Z,102555.47
2018-02-16T19:56:28.624Z,102554.56
2018-02-16T19:58:56.340Z,102555.31
2018-02-16T20:01:24.042Z,102551.41
2018-02-16T20:03:51.696Z,102558.00
2018-02-16T20:06:19.667Z,102554.91
2018-02-16T20:08:47.347Z,102567.76
2018-02-16T20:11:15.032Z,102565.93
2018-02-16T20:13:42.670Z,102560.77
2018-02-16T20:16:10.307Z,102566.13
2018-02-16T20:18:37.974Z,102562.53
2018-02-16T20:21:05.633Z,102563.66
2018-02-16T20:23:33.575Z,102561.30
2018-02-16T20:26:01.250Z,102560.78
2018-02-16T20:28:28.864Z,102563.06
2018-02-16T20:30:56.566Z,102563.07
2018-02-16T20:33:24.656Z,102564.52
2018-02-16T20:35:52.557Z,102566.24
2018-02-16T20:38:20.176Z,102565.43
2018-02-16T20:40:47.854Z,102562.97
2018-02-16T20:43:15.468Z,102559.35
2018-02-16T20:45:43.085Z,102565.22
2018-02-16T20:48:10.727Z,102569.33
2018-02-16T20:50:38.382Z,102570.88
2018-02-16T20:53:06.038Z,102569.75
2018-02-16T20:55:33.687Z,102570.67
2018-02-16T20:58:01.435Z,102574.15
2018-02-16T21:00:29.113Z,102570.14
2018-02-16T21:02:56.760Z,102573.66
2018-02-16T21:05:24.487Z,102572.60
2018-02-16T21:07:52.135Z,102570.67
2018-02-16T21:10:19.737Z,102567.19
2018-02-16T21:12:47.382Z,102566.34
2018-02-16T21:15:15.030Z,102565.32
2018-02-16T21:17:42.648Z,102565.11
2018-02-16T21:20:10.374Z,102580.23
2018-02-16T21:22:37.970Z,102570.56
2018-02-16T21:25:05.603Z,102577.45
2018-02-16T21:27:33.471Z,102568.80
2018-02-16T21:30:01.082Z,102566.86
2018-02-16T21:32:28.793Z,102559.55
2018-02-16T21:34:56.478Z,102551.05
2018-02-16T21:37:24.062Z,102556.07
2018-02-16T21:39:51.735Z,102555.75
2018-02-16T21:42:19.383Z,102550.20
2018-02-16T21:44:47.049Z,102544.86
2018-02-16T21:47:14.667Z,102549.18
2018-02-16T21:49:42.328Z,102542.81
2018-02-16T21:52:09.954Z,102542.50
2018-02-16T21:54:37.577Z,102543.52
2018-02-16T21:57:05.214Z,102547.63
2018-02-16T21:59:32.830Z,102551.42
2018-02-16T22:02:00.486Z,102544.85
2018-02-16T22:04:28.661Z,102556.06
2018-02-16T22:06:56.269Z,102548.16
2018-02-16T22:09:24.308Z,102553.88
2018-02-16T22:11:51.915Z,102562.63
2018-02-16T22:14:19.557Z,102559.95
2018-02-16T22:16:47.198Z,102561.17
2018-02-16T22:19:14.782Z,102566.41
2018-02-16T22:21:42.817Z,102571.73
2018-02-16T22:24:10.424Z,102565.77
2018-02-16T22:26:38.381Z,102562.70
2018-02-16T22:29:06.357Z,102568.95
2018-02-16T22:31:34.446Z,102565.76
2018-02-16T22:34:02.532Z,102570.81
2018-02-16T22:36:30.519Z,102561.53
2018-02-16T22:38:58.644Z,102566.58
2018-02-16T22:41:26.230Z,102574.48
2018-02-16T22:43:53.844Z,102574.37
2018-02-16T22:46:21.795Z,102570.74
2018-02-16T22:48:49.449Z,102575.70
2018-02-16T22:51:17.085Z,102572.39
2018-02-16T22:53:44.682Z,102573.14
2018-02-16T22:56:12.343Z,102576.20
2018-02-16T22:58:39.991Z,102576.20
2018-02-16T23:01:07.576Z,102572.92
2018-02-16T23:03:35.214Z,102573.52
2018-02-16T23:06:02.862Z,102577.62
2018-02-16T23:08:32.124Z,102578.84
2018-02-16T23:11:03.238Z,102578.95
2018-02-16T23:13:30.842Z,102587.70
2018-02-16T23:15:58.479Z,102588.92
2018-02-16T23:18:26.147Z,102594.27
2018-02-16T23:20:53.831Z,102592.51
2018-02-16T23:23:21.506Z,102596.30
2018-02-16T23:25:49.154Z,102595.16
2018-02-16T23:28:16.765Z,102591.05
2018-02-16T23:30:44.589Z,102590.62
2018-02-16T23:33:13.756Z,102585.38
2018-02-16T23:35:41.358Z,102589.09
2018-02-16T23:38:09.046Z,102588.87
2018-02-16T23:40:36.642Z,102588.66
2018-02-16T23:43:04.193Z,102581.34
2018-02-16T23:45:31.789Z,102575.62
2018-02-16T23:47:59.394Z,102573.97
2018-02-16T23:50:27.028Z,102572.94
2018-02-16T23:52:54.694Z,102569.73
2018-02-16T23:55:22.646Z,102569.02
2018-02-16T23:57:50.264Z,102566.42
